createdAt,value
2023-01-29T00:00:15.458Z,102671.09
2023-01-29T00:02:44.287Z,102671.81
2023-01-29T00:05:26.968Z,102673.41
2023-01-29T00:07:56.662Z,102667.38
2023-01-29T00:10:26.180Z,102671.25
2023-01-29T00:12:55.224Z,102676.72
2023-01-29T00:15:23.818Z,102675.13
2023-01-29T00:17:52.404Z,102675.97
2023-01-29T00:20:22.472Z,102663.91
2023-01-29T00:22:51.053Z,102669.94
2023-01-29T00:25:19.679Z,102668.22
2023-01-29T00:27:48.294Z,102658.56
2023-01-29T00:30:19.817Z,102658.75
2023-01-29T00:32:48.856Z,102654.56
2023-01-29T00:35:17.481Z,102651.97
2023-01-29T00:37:47.550Z,102654.69
2023-01-29T00:40:16.724Z,102647.69
2023-01-29T00:43:03.813Z,102646.94
2023-01-29T00:45:32.436Z,102654.00
2023-01-29T00:48:01.058Z,102649.09
2023-01-29T00:50:29.751Z,102646.94
2023-01-29T00:52:59.720Z,102654.56
2023-01-29T00:55:28.337Z,102651.84
2023-01-29T00:57:56.960Z,102657.88
2023-01-29T01:00:25.940Z,102672.97
2023-01-29T01:03:08.413Z,102660.88
2023-01-29T01:05:39.138Z,102667.94
2023-01-29T01:08:29.714Z,102650.97
2023-01-29T01:11:02.659Z,102658.88
2023-01-29T01:13:32.844Z,102663.31
2023-01-29T01:16:01.670Z,102660.75
2023-01-29T01:18:31.468Z,102662.31
2023-01-29T01:21:00.136Z,102660.88
2023-01-29T01:23:30.121Z,102657.44
2023-01-29T01:25:59.017Z,102631.84
2023-01-29T01:28:28.103Z,102624.38
2023-01-29T01:30:56.856Z,102634.84
2023-01-29T01:33:25.845Z,102615.31
2023-01-29T01:35:54.479Z,102620.47
2023-01-29T01:38:23.056Z,102620.78
2023-01-29T01:40:53.015Z,102617.91
2023-01-29T01:43:21.601Z,102613.31
2023-01-29T01:45:50.249Z,102615.00
2023-01-29T01:48:23.347Z,102612.88
2023-01-29T01:50:54.885Z,102611.88
2023-01-29T01:53:27.175Z,102612.59
2023-01-29T01:56:02.700Z,102617.44
2023-01-29T01:58:36.428Z,102622.50
2023-01-29T02:01:07.958Z,102628.09
2023-01-29T02:03:57.807Z,102629.56
2023-01-29T02:06:43.702Z,102627.66
2023-01-29T02:09:35.957Z,102625.97
2023-01-29T02:12:08.794Z,102630.69
2023-01-29T02:14:40.311Z,102628.69
2023-01-29T02:17:11.916Z,102641.91
2023-01-29T02:19:48.347Z,102644.63
2023-01-29T02:22:47.284Z,102647.47
2023-01-29T02:25:44.771Z,102656.41
2023-01-29T02:28:33.479Z,102651.69
2023-01-29T02:31:13.330Z,102657.25
2023-01-29T02:33:53.307Z,102661.13
2023-01-29T02:36:29.859Z,102665.88
2023-01-29T02:39:06.210Z,102653.34
2023-01-29T02:41:41.852Z,102654.78
2023-01-29T02:44:22.833Z,102654.81
2023-01-29T02:46:59.033Z,102642.72
2023-01-29T02:49:36.107Z,102642.59
2023-01-29T02:52:11.091Z,102636.56
2023-01-29T02:54:46.575Z,102640.56
2023-01-29T02:57:22.579Z,102638.41
2023-01-29T02:59:56.865Z,102630.94
2023-01-29T03:02:32.349Z,102635.38
2023-01-29T03:05:04.196Z,102621.13
2023-01-29T03:07:45.096Z,102627.47
2023-01-29T03:10:18.548Z,102641.72
2023-01-29T03:12:53.155Z,102638.94
2023-01-29T03:15:29.225Z,102639.84
2023-01-29T03:18:03.405Z,102645.81
2023-01-29T03:20:37.185Z,102642.25
2023-01-29T03:23:11.662Z,102635.00
2023-01-29T03:26:00.317Z,102637.44
2023-01-29T03:28:48.724Z,102643.66
2023-01-29T03:31:37.472Z,102649.31
2023-01-29T03:34:16.366Z,102648.31
2023-01-29T03:36:55.823Z,102643.84
2023-01-29T03:39:28.117Z,102651.59
2023-01-29T03:42:01.911Z,102654.03
2023-01-29T03:44:40.408Z,102648.72
2023-01-29T03:47:19.346Z,102637.94
2023-01-29T03:49:57.556Z,102634.34
2023-01-29T03:52:30.170Z,102635.50
2023-01-29T03:55:06.834Z,102642.09
2023-01-29T03:57:41.287Z,102642.09
2023-01-29T04:00:15.781Z,102639.22
2023-01-29T04:02:53.859Z,102638.50
2023-01-29T04:05:25.496Z,102638.50
2023-01-29T04:07:58.571Z,102637.94
2023-01-29T04:10:28.778Z,102631.34
2023-01-29T04:13:00.695Z,102626.91
2023-01-29T04:15:33.333Z,102621.16
2023-01-29T04:18:03.886Z,102611.75
2023-01-29T04:20:32.483Z,102608.34
2023-01-29T04:23:01.073Z,102604.06
2023-01-29T04:25:36.474Z,102601.59
2023-01-29T04:28:12.247Z,102595.28
2023-01-29T04:30:46.174Z,102591.13
2023-01-29T04:33:26.794Z,102577.03
2023-01-29T04:36:24.640Z,102589.94
2023-01-29T04:39:06.371Z,102599.75
2023-01-29T04:41:41.718Z,102596.88
2023-01-29T04:44:25.002Z,102592.59
2023-01-29T04:47:03.736Z,102600.31
2023-01-29T04:49:44.691Z,102585.09
2023-01-29T04:52:21.720Z,102589.97
2023-01-29T04:55:03.752Z,102584.25
2023-01-29T04:57:37.666Z,102587.72
2023-01-29T05:00:12.671Z,102584.50
2023-01-29T05:02:45.971Z,102580.38
2023-01-29T05:05:19.460Z,102577.00
2023-01-29T05:07:49.354Z,102581.22
2023-01-29T05:10:21.394Z,102588.03
2023-01-29T05:12:56.622Z,102575.09
2023-01-29T05:15:28.308Z,102568.72
2023-01-29T05:18:02.993Z,102567.44
2023-01-29T05:20:36.782Z,102566.44
2023-01-29T05:23:05.705Z,102560.69
2023-01-29T05:25:35.369Z,102557.19
2023-01-29T05:28:06.519Z,102554.19
2023-01-29T05:30:37.327Z,102543.44
2023-01-29T05:33:12.268Z,102538.41
2023-01-29T05:35:42.329Z,102537.75
2023-01-29T05:38:11.011Z,102548.47
2023-01-29T05:40:40.033Z,102538.00
2023-01-29T05:43:16.753Z,102530.25
2023-01-29T05:45:52.516Z,102535.16
2023-01-29T05:48:21.130Z,102542.75
2023-01-29T05:50:51.096Z,102543.78
2023-01-29T05:53:19.647Z,102549.19
2023-01-29T05:55:48.670Z,102552.06
2023-01-29T05:58:19.669Z,102558.00
2023-01-29T06:00:48.326Z,102560.53
2023-01-29T06:03:16.969Z,102557.72
2023-01-29T06:05:45.620Z,102569.72
2023-01-29T06:08:15.570Z,102567.56
2023-01-29T06:10:44.148Z,102573.63
2023-01-29T06:13:12.724Z,102578.41
2023-01-29T06:15:41.904Z,102580.91
2023-01-29T06:18:10.482Z,102584.22
2023-01-29T06:20:39.101Z,102596.94
2023-01-29T06:23:07.752Z,102599.97
2023-01-29T06:25:37.803Z,102594.97
2023-01-29T06:28:06.633Z,102597.19
2023-01-29T06:30:35.318Z,102596.91
2023-01-29T06:33:04.037Z,102596.50
2023-01-29T06:35:32.636Z,102615.38
2023-01-29T06:38:01.239Z,102612.34
2023-01-29T06:40:29.894Z,102600.41
2023-01-29T06:43:02.084Z,102611.06
2023-01-29T06:45:30.694Z,102596.88
2023-01-29T06:48:01.312Z,102589.19
2023-01-29T06:50:30.152Z,102576.09
2023-01-29T06:52:59.921Z,102578.50
2023-01-29T06:55:28.540Z,102578.28
2023-01-29T06:57:57.114Z,102577.88
2023-01-29T07:00:27.138Z,102570.19
2023-01-29T07:02:55.735Z,102576.09
2023-01-29T07:05:24.319Z,102573.50
2023-01-29T07:07:52.895Z,102567.91
2023-01-29T07:10:21.593Z,102579.09
2023-01-29T07:12:50.188Z,102564.09
2023-01-29T07:15:20.405Z,102560.56
2023-01-29T07:18:00.354Z,102560.50
2023-01-29T07:20:30.301Z,102562.41
2023-01-29T07:22:59.599Z,102562.84
2023-01-29T07:25:28.321Z,102565.66
2023-01-29T07:27:57.754Z,102558.63
2023-01-29T07:30:26.980Z,102558.00
2023-01-29T07:32:55.556Z,102550.34
2023-01-29T07:35:25.534Z,102550.19
2023-01-29T07:37:54.114Z,102552.59
2023-01-29T07:40:22.716Z,102560.28
2023-01-29T07:42:51.286Z,102571.88
2023-01-29T07:45:19.988Z,102584.75
2023-01-29T07:47:54.863Z,102579.78
2023-01-29T07:50:26.056Z,102576.44
2023-01-29T07:52:56.275Z,102569.50
2023-01-29T07:55:25.410Z,102564.25
2023-01-29T07:57:57.608Z,102573.22
2023-01-29T08:00:26.456Z,102559.63
2023-01-29T08:02:55.087Z,102560.91
2023-01-29T08:05:25.038Z,102565.38
2023-01-29T08:08:06.199Z,102569.25
2023-01-29T08:10:36.373Z,102560.19
2023-01-29T08:13:06.136Z,102566.94
2023-01-29T08:15:37.808Z,102574.00
2023-01-29T08:18:07.611Z,102566.13
2023-01-29T08:20:37.573Z,102567.28
2023-01-29T08:23:08.344Z,102575.84
2023-01-29T08:25:38.252Z,102571.97
2023-01-29T08:28:06.934Z,102559.75
2023-01-29T08:30:36.937Z,102563.44
2023-01-29T08:33:05.998Z,102547.47
2023-01-29T08:35:36.058Z,102535.09
2023-01-29T08:38:06.098Z,102549.38
2023-01-29T08:40:35.914Z,102541.09
2023-01-29T08:43:08.722Z,102547.03
2023-01-29T08:45:39.789Z,102537.66
2023-01-29T08:48:09.206Z,102547.88
2023-01-29T08:50:39.695Z,102552.75
2023-01-29T08:53:10.058Z,102545.63
2023-01-29T08:55:39.120Z,102543.47
2023-01-29T08:58:08.426Z,102524.75
2023-01-29T09:00:37.225Z,102536.91
2023-01-29T09:03:08.092Z,102518.94
2023-01-29T09:05:39.037Z,102524.00
2023-01-29T09:08:08.488Z,102519.06
2023-01-29T09:10:37.485Z,102524.53
2023-01-29T09:13:06.453Z,102525.47
2023-01-29T09:15:35.003Z,102525.69
2023-01-29T09:18:05.478Z,102514.56
2023-01-29T09:20:35.274Z,102511.22
2023-01-29T09:23:08.124Z,102508.03
2023-01-29T09:25:37.128Z,102506.78
2023-01-29T09:28:06.344Z,102507.38
2023-01-29T09:30:37.701Z,102512.25
2023-01-29T09:33:06.868Z,102506.66
2023-01-29T09:35:36.023Z,102508.91
2023-01-29T09:38:06.002Z,102504.00
2023-01-29T09:40:46.202Z,102492.25
2023-01-29T09:43:18.313Z,102502.06
2023-01-29T09:45:55.195Z,102496.16
2023-01-29T09:48:28.795Z,102495.69
2023-01-29T09:51:01.631Z,102499.09
2023-01-29T09:53:37.780Z,102496.66
2023-01-29T09:56:12.611Z,102495.69
2023-01-29T09:58:44.199Z,102489.00
2023-01-29T10:01:20.458Z,102497.47
2023-01-29T10:04:14.792Z,102511.06
2023-01-29T10:06:58.601Z,102501.25
2023-01-29T10:09:42.113Z,102505.47
2023-01-29T10:12:22.600Z,102500.28
2023-01-29T10:15:00.551Z,102507.13
2023-01-29T10:17:54.267Z,102509.19
2023-01-29T10:20:56.024Z,102499.31
2023-01-29T10:23:28.165Z,102500.28
2023-01-29T10:25:58.235Z,102498.50
2023-01-29T10:28:30.794Z,102488.81
2023-01-29T10:31:05.272Z,102490.63
2023-01-29T10:33:54.301Z,102486.75
2023-01-29T10:36:37.140Z,102477.44
2023-01-29T10:39:05.890Z,102481.19
2023-01-29T10:42:03.545Z,102485.59
2023-01-29T10:44:44.700Z,102484.16
2023-01-29T10:47:35.031Z,102480.63
2023-01-29T10:50:18.497Z,102479.63
2023-01-29T10:53:16.719Z,102468.28
2023-01-29T10:55:56.064Z,102462.09
2023-01-29T10:58:35.296Z,102450.75
2023-01-29T11:01:04.157Z,102461.13
2023-01-29T11:03:34.946Z,102455.81
2023-01-29T11:06:13.147Z,102452.44
2023-01-29T11:08:47.988Z,102448.97
2023-01-29T11:11:22.262Z,102445.56
2023-01-29T11:13:58.404Z,102428.84
2023-01-29T11:16:28.347Z,102424.03
2023-01-29T11:18:58.735Z,102425.81
2023-01-29T11:21:29.397Z,102438.03
2023-01-29T11:24:12.814Z,102425.00
2023-01-29T11:26:43.286Z,102428.09
2023-01-29T11:29:33.777Z,102419.31
2023-01-29T11:32:05.793Z,102415.63
2023-01-29T11:34:34.936Z,102403.72
2023-01-29T11:37:05.056Z,102402.97
2023-01-29T11:39:34.414Z,102398.13
2023-01-29T11:42:04.758Z,102394.53
2023-01-29T11:44:37.136Z,102388.34
2023-01-29T11:47:18.486Z,102384.09
2023-01-29T11:49:50.718Z,102389.53
2023-01-29T11:52:21.696Z,102378.84
2023-01-29T11:54:55.282Z,102368.63
2023-01-29T11:57:29.579Z,102359.09
2023-01-29T12:00:04.676Z,102365.97
2023-01-29T12:02:40.083Z,102349.59
2023-01-29T12:05:17.271Z,102343.91
2023-01-29T12:07:48.983Z,102334.81
2023-01-29T12:10:35.743Z,102333.94
2023-01-29T12:13:22.677Z,102325.34
2023-01-29T12:16:13.145Z,102329.50
2023-01-29T12:18:45.445Z,102308.41
2023-01-29T12:21:19.365Z,102301.72
2023-01-29T12:23:53.529Z,102303.06
2023-01-29T12:26:29.819Z,102291.44
2023-01-29T12:29:23.090Z,102277.72
2023-01-29T12:32:03.800Z,102266.06
2023-01-29T12:34:42.193Z,102266.09
2023-01-29T12:37:19.023Z,102260.91
2023-01-29T12:39:47.782Z,102247.94
2023-01-29T12:42:21.031Z,102247.94
2023-01-29T12:44:53.792Z,102239.31
2023-01-29T12:47:28.500Z,102242.47
2023-01-29T12:50:01.472Z,102242.78
2023-01-29T12:52:40.618Z,102234.72
2023-01-29T12:55:14.734Z,102237.88
2023-01-29T12:57:48.679Z,102231.16
2023-01-29T13:00:22.861Z,102226.88
2023-01-29T13:02:58.108Z,102221.69
2023-01-29T13:05:29.513Z,102214.19
2023-01-29T13:08:04.243Z,102215.81
2023-01-29T13:10:37.721Z,102206.84
2023-01-29T13:13:13.846Z,102204.50
2023-01-29T13:15:44.862Z,102204.78
2023-01-29T13:18:39.011Z,102207.19
2023-01-29T13:21:13.215Z,102215.53
2023-01-29T13:23:47.100Z,102206.94
2023-01-29T13:26:20.014Z,102215.38
2023-01-29T13:28:49.641Z,102208.53
2023-01-29T13:31:29.724Z,102203.38
2023-01-29T13:34:08.534Z,102200.19
2023-01-29T13:36:42.901Z,102198.34
2023-01-29T13:39:21.771Z,102196.47
2023-01-29T13:41:53.069Z,102202.56
2023-01-29T13:44:26.254Z,102199.16
2023-01-29T13:46:58.472Z,102206.50
2023-01-29T13:49:32.852Z,102203.03
2023-01-29T13:52:15.076Z,102202.84
2023-01-29T13:54:52.869Z,102203.56
2023-01-29T13:57:55.638Z,102206.69
2023-01-29T14:00:58.915Z,102202.00
2023-01-29T14:04:03.793Z,102185.72
2023-01-29T14:06:51.901Z,102194.06
2023-01-29T14:09:47.760Z,102189.16
2023-01-29T14:12:37.256Z,102171.69
2023-01-29T14:15:29.909Z,102174.63
2023-01-29T14:18:25.803Z,102175.19
2023-01-29T14:21:01.597Z,102176.81
2023-01-29T14:23:41.371Z,102167.56
2023-01-29T14:26:31.901Z,102165.34
2023-01-29T14:29:05.433Z,102164.16
2023-01-29T14:31:45.911Z,102150.88
2023-01-29T14:34:29.107Z,102158.28
2023-01-29T14:37:02.460Z,102162.28
2023-01-29T14:39:37.594Z,102159.75
2023-01-29T14:42:18.053Z,102151.50
2023-01-29T14:44:58.924Z,102166.66
2023-01-29T14:48:00.751Z,102154.91
2023-01-29T14:50:50.410Z,102152.09
2023-01-29T14:53:24.783Z,102143.91
2023-01-29T14:56:00.627Z,102147.56
2023-01-29T14:58:40.070Z,102148.75
2023-01-29T15:01:19.063Z,102143.22
2023-01-29T15:03:52.436Z,102137.75
2023-01-29T15:06:34.192Z,102146.50
2023-01-29T15:09:11.489Z,102142.84
2023-01-29T15:11:50.167Z,102145.81
2023-01-29T15:14:25.688Z,102137.34
2023-01-29T15:17:08.818Z,102139.47
2023-01-29T15:19:40.353Z,102137.72
2023-01-29T15:22:11.890Z,102133.78
2023-01-29T15:24:41.862Z,102128.94
2023-01-29T15:27:16.279Z,102129.06
2023-01-29T15:29:49.683Z,102126.19
2023-01-29T15:32:30.782Z,102122.06
2023-01-29T15:35:00.489Z,102118.63
2023-01-29T15:37:32.331Z,102112.53
2023-01-29T15:40:02.389Z,102120.91
2023-01-29T15:42:46.664Z,102116.31
2023-01-29T15:45:28.476Z,102115.25
2023-01-29T15:48:01.767Z,102110.34
2023-01-29T15:50:32.038Z,102112.72
2023-01-29T15:53:04.740Z,102113.88
2023-01-29T15:55:34.132Z,102104.44
2023-01-29T15:58:04.217Z,102102.94
2023-01-29T16:00:33.253Z,102100.34
2023-01-29T16:03:02.037Z,102096.81
2023-01-29T16:05:33.140Z,102101.94
2023-01-29T16:08:02.598Z,102087.75
2023-01-29T16:10:33.717Z,102095.75
2023-01-29T16:13:04.324Z,102084.91
2023-01-29T16:15:34.947Z,102078.78
2023-01-29T16:18:17.951Z,102080.06
2023-01-29T16:20:51.563Z,102074.19
2023-01-29T16:23:24.694Z,102064.28
2023-01-29T16:25:53.736Z,102075.25
2023-01-29T16:28:23.846Z,102072.88
2023-01-29T16:30:58.531Z,102065.97
2023-01-29T16:33:35.461Z,102059.66
2023-01-29T16:36:06.231Z,102056.13
2023-01-29T16:38:36.514Z,102052.81
2023-01-29T16:41:17.654Z,102053.59
2023-01-29T16:43:53.321Z,102054.28
2023-01-29T16:46:26.452Z,102059.72
2023-01-29T16:48:55.246Z,102052.03
2023-01-29T16:51:27.086Z,102058.63
2023-01-29T16:54:01.127Z,102055.97
2023-01-29T16:56:33.252Z,102056.75
2023-01-29T16:59:05.628Z,102044.47
2023-01-29T17:01:36.479Z,102040.28
2023-01-29T17:04:11.177Z,102045.53
2023-01-29T17:06:42.680Z,102044.28
2023-01-29T17:09:25.494Z,102038.38
2023-01-29T17:11:57.569Z,102047.69
2023-01-29T17:14:27.964Z,102044.44
2023-01-29T17:17:02.684Z,102037.72
2023-01-29T17:19:31.413Z,102036.03
2023-01-29T17:22:04.716Z,102019.75
2023-01-29T17:24:33.467Z,102034.78
2023-01-29T17:27:02.671Z,102022.19
2023-01-29T17:29:33.289Z,102019.88
2023-01-29T17:32:01.960Z,102022.31
2023-01-29T17:34:30.562Z,102014.22
2023-01-29T17:36:59.154Z,102011.03
2023-01-29T17:39:27.712Z,102013.06
2023-01-29T17:41:58.611Z,102020.22
2023-01-29T17:44:27.222Z,102020.75
2023-01-29T17:46:57.832Z,102015.19
2023-01-29T17:49:28.801Z,102020.13
2023-01-29T17:51:58.311Z,102021.75
2023-01-29T17:54:26.939Z,102010.44
2023-01-29T17:56:55.790Z,102008.94
2023-01-29T17:59:26.357Z,101996.66
2023-01-29T18:01:56.353Z,101989.34
2023-01-29T18:04:24.943Z,102002.69
2023-01-29T18:06:54.318Z,101985.25
2023-01-29T18:09:23.348Z,101981.47
2023-01-29T18:11:53.418Z,101974.09
2023-01-29T18:14:22.291Z,101967.94
2023-01-29T18:16:50.868Z,101987.47
2023-01-29T18:19:27.406Z,101992.84
2023-01-29T18:21:56.255Z,101992.19
2023-01-29T18:24:26.681Z,101982.97
2023-01-29T18:26:55.393Z,101982.22
2023-01-29T18:29:29.519Z,101976.38
2023-01-29T18:31:58.503Z,101984.91
2023-01-29T18:34:28.492Z,101983.06
2023-01-29T18:36:57.066Z,101970.06
2023-01-29T18:39:25.664Z,101967.09
2023-01-29T18:41:54.243Z,101961.66
2023-01-29T18:44:22.915Z,101958.19
2023-01-29T18:46:51.537Z,101951.44
2023-01-29T18:49:20.142Z,101956.75
2023-01-29T18:51:50.086Z,101939.47
2023-01-29T18:54:20.305Z,101942.56
2023-01-29T18:57:08.750Z,101939.50
2023-01-29T18:59:37.566Z,101942.00
2023-01-29T19:02:06.307Z,101940.53
2023-01-29T19:04:34.937Z,101939.44
2023-01-29T19:07:05.285Z,101941.28
2023-01-29T19:09:34.000Z,101934.69
2023-01-29T19:12:02.606Z,101925.47
2023-01-29T19:14:31.215Z,101923.78
2023-01-29T19:17:01.495Z,101925.09
2023-01-29T19:19:30.219Z,101923.59
2023-01-29T19:21:58.841Z,101915.06
2023-01-29T19:24:29.052Z,101905.69
2023-01-29T19:26:57.628Z,101903.50
2023-01-29T19:29:26.230Z,101900.31
2023-01-29T19:31:54.804Z,101897.09
2023-01-29T19:34:23.410Z,101881.72
2023-01-29T19:36:51.985Z,101880.53
2023-01-29T19:39:20.585Z,101867.06
2023-01-29T19:41:50.588Z,101861.25
2023-01-29T19:44:19.165Z,101860.59
2023-01-29T19:46:47.881Z,101842.00
2023-01-29T19:49:16.672Z,101853.25
2023-01-29T19:51:45.961Z,101849.75
2023-01-29T19:54:14.671Z,101843.75
2023-01-29T19:56:43.266Z,101843.22
2023-01-29T19:59:14.175Z,101842.69
2023-01-29T20:01:42.765Z,101840.19
2023-01-29T20:04:12.320Z,101829.31
2023-01-29T20:06:41.009Z,101823.50
2023-01-29T20:09:09.614Z,101820.25
2023-01-29T20:11:38.150Z,101811.31
2023-01-29T20:14:06.794Z,101806.06
2023-01-29T20:16:36.997Z,101796.00
2023-01-29T20:19:13.909Z,101800.25
2023-01-29T20:21:45.358Z,101788.09
2023-01-29T20:24:14.980Z,101789.41
2023-01-29T20:26:43.607Z,101776.69
2023-01-29T20:29:13.434Z,101774.25
2023-01-29T20:31:43.457Z,101755.91
2023-01-29T20:34:12.151Z,101756.72
2023-01-29T20:36:40.848Z,101753.38
2023-01-29T20:39:09.514Z,101739.75
2023-01-29T20:41:41.568Z,101747.00
2023-01-29T20:44:10.231Z,101761.13
2023-01-29T20:46:39.197Z,101765.66
2023-01-29T20:49:09.380Z,101773.94
2023-01-29T20:51:38.096Z,101765.84
2023-01-29T20:54:06.772Z,101772.13
2023-01-29T20:56:38.038Z,101754.75
2023-01-29T20:59:13.051Z,101761.75
2023-01-29T21:01:41.637Z,101755.97
2023-01-29T21:04:11.565Z,101757.06
2023-01-29T21:06:40.172Z,101773.28
2023-01-29T21:09:08.912Z,101773.53
2023-01-29T21:11:37.581Z,101761.53
2023-01-29T21:14:07.188Z,101760.53
2023-01-29T21:16:35.824Z,101759.16
2023-01-29T21:19:04.444Z,101741.91
2023-01-29T21:21:34.792Z,101726.06
2023-01-29T21:24:03.377Z,101726.94
2023-01-29T21:26:32.001Z,101718.31
2023-01-29T21:29:00.629Z,101725.53
2023-01-29T21:31:29.267Z,101734.59
2023-01-29T21:33:57.828Z,101741.59
2023-01-29T21:36:26.474Z,101747.22
2023-01-29T21:38:56.355Z,101748.13
2023-01-29T21:41:45.825Z,101742.44
2023-01-29T21:44:13.756Z,101751.91
2023-01-29T21:46:42.357Z,101763.44
2023-01-29T21:49:10.940Z,101769.63
2023-01-29T21:51:41.555Z,101785.06
2023-01-29T21:54:11.565Z,101781.09
2023-01-29T21:56:40.145Z,101779.25
2023-01-29T21:59:09.284Z,101782.06
2023-01-29T22:01:38.849Z,101776.25
2023-01-29T22:04:09.734Z,101759.75
2023-01-29T22:06:38.358Z,101752.00
2023-01-29T22:09:07.172Z,101755.22
2023-01-29T22:11:37.254Z,101753.81
2023-01-29T22:14:05.839Z,101743.75
2023-01-29T22:16:34.488Z,101732.25
2023-01-29T22:19:03.268Z,101739.03
2023-01-29T22:21:32.656Z,101734.81
2023-01-29T22:24:02.796Z,101740.97
2023-01-29T22:26:32.205Z,101720.06
2023-01-29T22:29:02.193Z,101710.66
2023-01-29T22:31:30.815Z,101719.06
2023-01-29T22:33:59.623Z,101723.13
2023-01-29T22:36:28.243Z,101721.06
2023-01-29T22:38:56.822Z,101712.63
2023-01-29T22:41:25.679Z,101731.56
2023-01-29T22:43:54.264Z,101727.69
2023-01-29T22:46:24.306Z,101716.91
2023-01-29T22:48:52.914Z,101700.25
2023-01-29T22:51:21.570Z,101678.41
2023-01-29T22:53:52.511Z,101675.56
2023-01-29T22:56:25.286Z,101652.56
2023-01-29T22:58:54.712Z,101636.28
2023-01-29T23:01:26.684Z,101614.97
2023-01-29T23:03:55.678Z,101618.47
2023-01-29T23:06:24.616Z,101583.66
2023-01-29T23:08:53.396Z,101579.88
2023-01-29T23:11:23.897Z,101572.22
2023-01-29T23:13:54.545Z,101575.91
2023-01-29T23:16:28.040Z,101561.19
2023-01-29T23:18:57.628Z,101585.59
2023-01-29T23:21:27.734Z,101617.22
2023-01-29T23:23:58.328Z,101602.53
2023-01-29T23:26:44.537Z,101599.53
2023-01-29T23:29:13.148Z,101606.00
2023-01-29T23:31:43.149Z,101596.97
2023-01-29T23:34:11.987Z,101593.88
2023-01-29T23:36:40.813Z,101581.63
2023-01-29T23:39:09.489Z,101574.13
2023-01-29T23:41:38.458Z,101563.41
2023-01-29T23:44:07.111Z,101570.41
2023-01-29T23:46:35.763Z,101559.41
2023-01-29T23:49:05.787Z,101552.25
2023-01-29T23:51:34.330Z,101540.13
2023-01-29T23:54:02.937Z,101516.75
2023-01-29T23:56:31.533Z,101519.81
2023-01-29T23:59:00.298Z,101523.44
